Time;durP1;ratioP1;P1;durP2;ratioP2;P2;SDS_P1;SDS_P2;PMS_P1;PMS_P2;Temp;Humidity;BMP_temperature;BMP_pressure;BME280_temperature;BME280_humidity;BME280_pressure;Samples;Min_cycle;Max_cycle;Signal;HPM_P1;HPM_P2
2024/03/19 00:00:40;;;;;;;17.70;10.07;;;;;;;8.64;86.37;101189.84;5045371;28;20092;-83
2024/03/19 00:03:08;;;;;;;16.88;10.18;;;;;;;8.64;85.88;101195.13;5044828;28;20052;-85
2024/03/19 00:05:36;;;;;;;21.80;10.80;;;;;;;8.65;86.44;101199.44;5038188;28;20564;-83
2024/03/19 00:08:03;;;;;;;16.38;10.43;;;;;;;8.65;86.28;101199.44;5042725;28;20057;-81
2024/03/19 00:10:30;;;;;;;19.52;11.23;;;;;;;8.67;86.10;101200.19;5037615;28;20137;-83
2024/03/19 00:12:56;;;;;;;17.83;10.68;;;;;;;8.71;86.29;101199.88;5039453;28;20060;-83
2024/03/19 00:15:23;;;;;;;20.95;10.63;;;;;;;8.79;85.98;101196.66;5043286;28;20057;-86
2024/03/19 00:17:52;;;;;;;18.00;10.25;;;;;;;8.81;85.64;101200.91;5042850;28;20113;-86
2024/03/19 00:20:19;;;;;;;15.43;10.10;;;;;;;8.86;85.83;101197.94;5042335;28;20053;-85
2024/03/19 00:22:47;;;;;;;15.02;10.13;;;;;;;8.84;85.75;101199.84;5042550;28;20079;-85
2024/03/19 00:25:14;;;;;;;18.25;10.60;;;;;;;8.88;86.24;101196.00;5040195;28;20097;-85
2024/03/19 00:27:41;;;;;;;16.42;10.07;;;;;;;8.93;85.88;101204.47;5039168;28;20046;-83
2024/03/19 00:30:11;;;;;;;18.45;10.02;;;;;;;8.93;86.30;101201.84;5038776;28;20076;-84
2024/03/19 00:32:38;;;;;;;14.43;9.55;;;;;;;8.99;85.99;101198.75;5039072;28;20045;-84
2024/03/19 00:35:08;;;;;;;15.68;10.07;;;;;;;9.07;86.28;101200.84;5037930;28;20219;-85
2024/03/19 00:37:35;;;;;;;16.38;10.20;;;;;;;8.99;86.67;101197.91;5034855;28;20054;-84
2024/03/19 00:40:04;;;;;;;13.80;8.98;;;;;;;9.09;85.59;101194.47;5034711;28;20053;-85
2024/03/19 00:42:31;;;;;;;16.35;10.05;;;;;;;9.03;85.95;101200.22;5034075;28;20049;-85
2024/03/19 00:44:58;;;;;;;15.80;9.82;;;;;;;9.00;86.73;101203.06;5032713;28;20054;-85
2024/03/19 00:47:25;;;;;;;15.38;9.25;;;;;;;8.96;86.35;101196.31;5039797;28;20049;-81
2024/03/19 00:49:52;;;;;;;17.50;9.52;;;;;;;8.94;86.88;101195.59;5038180;28;20049;-81
2024/03/19 00:52:28;;;;;;;14.90;9.50;;;;;;;8.95;87.29;101193.78;5041036;28;20073;-81
2024/03/19 00:57:23;;;;;;;14.70;9.25;;;;;;;8.57;87.85;101177.09;5009242;28;20054;-77
2024/03/19 00:59:51;;;;;;;16.05;9.07;;;;;;;8.60;88.17;101191.84;5013508;28;20108;-77
2024/03/19 01:02:17;;;;;;;15.63;9.90;;;;;;;8.41;88.35;101176.47;5012703;28;20057;-78
2024/03/19 01:04:48;;;;;;;13.63;8.98;;;;;;;8.49;88.73;101184.69;5015515;28;20099;-81
2024/03/19 01:07:18;;;;;;;19.48;9.45;;;;;;;8.46;88.56;101195.44;4992746;28;20275;-78
2024/03/19 01:09:44;;;;;;;13.57;9.02;;;;;;;8.45;88.74;101193.78;4996483;28;20050;-78
2024/03/19 01:12:11;;;;;;;18.45;10.23;;;;;;;8.51;88.63;101203.88;5000640;28;20104;-80
2024/03/19 01:14:40;;;;;;;15.25;10.07;;;;;;;8.56;87.44;101193.00;5001857;28;20436;-79
2024/03/19 01:17:07;;;;;;;17.45;10.77;;;;;;;8.49;88.51;101189.13;4999950;28;20447;-77
2024/03/19 01:19:33;;;;;;;19.83;11.05;;;;;;;8.53;88.34;101193.25;4988464;28;20074;-78
2024/03/19 01:22:00;;;;;;;18.20;10.05;;;;;;;8.58;87.51;101193.78;4996357;28;20055;-78
2024/03/19 01:24:27;;;;;;;18.50;10.98;;;;;;;8.60;87.14;101184.78;4995513;28;20525;-77
2024/03/19 01:26:54;;;;;;;15.75;9.73;;;;;;;8.63;87.28;101182.88;4992070;28;20112;-76
2024/03/19 01:29:20;;;;;;;15.68;10.05;;;;;;;8.60;87.79;101179.50;4992454;28;20494;-77
2024/03/19 01:31:48;;;;;;;16.70;10.27;;;;;;;8.55;88.17;101178.16;4992917;28;20137;-77
2024/03/19 01:34:15;;;;;;;17.15;10.38;;;;;;;8.57;87.52;101182.38;4992173;28;20089;-77
2024/03/19 01:36:41;;;;;;;16.58;9.52;;;;;;;8.54;87.59;101177.31;4993868;28;20054;-78
2024/03/19 01:39:09;;;;;;;17.92;10.13;;;;;;;8.59;87.34;101174.34;4997499;28;20053;-78
2024/03/19 01:41:36;;;;;;;17.02;10.30;;;;;;;8.73;86.49;101181.28;4997439;28;20073;-78
2024/03/19 01:44:07;;;;;;;17.27;10.98;;;;;;;8.60;86.97;101176.03;4997609;28;20073;-78
2024/03/19 01:46:34;;;;;;;19.23;10.40;;;;;;;8.58;87.13;101172.66;4997513;28;20461;-78
2024/03/19 01:49:02;;;;;;;17.42;10.15;;;;;;;8.52;87.33;101166.00;4996796;28;20093;-79
2024/03/19 01:51:29;;;;;;;19.02;10.32;;;;;;;8.42;87.52;101166.75;4997154;28;20081;-78
2024/03/19 01:53:57;;;;;;;14.68;10.30;;;;;;;8.34;88.08;101160.19;4997535;28;20404;-79
2024/03/19 01:56:24;;;;;;;19.17;11.27;;;;;;;8.25;88.69;101163.47;4997321;28;20523;-80
2024/03/19 01:58:51;;;;;;;19.92;11.05;;;;;;;8.22;88.77;101168.13;4993336;28;20126;-79
2024/03/19 02:01:18;;;;;;;21.38;10.90;;;;;;;8.22;88.65;101168.13;4998963;28;20051;-79
2024/03/19 02:03:45;;;;;;;20.88;10.93;;;;;;;8.21;88.41;101159.34;4999191;28;20082;-79
2024/03/19 02:06:14;;;;;;;17.85;10.60;;;;;;;8.10;89.08;101161.88;4999496;28;20137;-79
2024/03/19 02:08:59;;;;;;;17.77;10.23;;;;;;;8.13;89.13;101166.13;4999876;28;20054;-79
2024/03/19 02:11:25;;;;;;;20.42;12.35;;;;;;;7.99;89.34;101154.72;4999095;28;20053;-78
2024/03/19 02:13:52;;;;;;;18.42;11.13;;;;;;;8.00;90.17;101155.56;4994847;28;20132;-79
2024/03/19 02:16:20;;;;;;;17.77;11.00;;;;;;;7.98;90.23;101147.75;4995416;28;20066;-78
2024/03/19 02:18:54;;;;;;;15.80;10.35;;;;;;;7.88;90.89;101151.13;4997652;28;20061;-77
2024/03/19 02:21:22;;;;;;;18.40;11.52;;;;;;;7.86;90.71;101148.59;4998966;28;20502;-78
2024/03/19 02:23:50;;;;;;;18.10;11.10;;;;;;;7.83;90.98;101144.38;4999921;28;20105;-77
2024/03/19 02:26:17;;;;;;;21.38;12.02;;;;;;;7.74;91.46;101139.72;5005374;28;20065;-76
2024/03/19 02:28:43;;;;;;;20.42;11.45;;;;;;;7.71;92.12;101139.09;5003430;28;20054;-76
2024/03/19 02:31:10;;;;;;;20.50;11.10;;;;;;;7.70;91.61;101140.03;5005558;28;20550;-78
2024/03/19 02:33:37;;;;;;;19.52;11.63;;;;;;;7.69;92.30;101143.63;5007198;28;20232;-77
2024/03/19 02:36:04;;;;;;;20.23;11.25;;;;;;;7.79;91.55;101147.31;5005767;28;20085;-80
2024/03/19 02:38:31;;;;;;;19.85;11.43;;;;;;;7.77;91.49;101133.41;5007238;28;20541;-77
2024/03/19 02:40:59;;;;;;;17.88;10.57;;;;;;;7.83;91.30;101135.63;5005861;28;20423;-77
2024/03/19 02:43:25;;;;;;;17.13;10.32;;;;;;;7.89;91.49;101137.84;5006741;28;20054;-78
2024/03/19 02:45:54;;;;;;;17.52;10.65;;;;;;;7.94;90.78;101140.16;4994707;28;20368;-79
2024/03/19 02:48:21;;;;;;;20.08;11.60;;;;;;;7.97;90.55;101140.78;4995459;28;20054;-77
2024/03/19 02:50:48;;;;;;;19.70;11.35;;;;;;;7.94;91.04;101129.63;4996148;28;20426;-77
2024/03/19 02:53:14;;;;;;;20.10;11.20;;;;;;;8.02;91.15;101133.41;4997451;28;20078;-77
2024/03/19 02:55:40;;;;;;;18.88;11.35;;;;;;;8.04;90.43;101139.44;4998128;28;20526;-81
2024/03/19 02:58:08;;;;;;;18.55;11.00;;;;;;;8.13;89.83;101139.75;5001059;28;20085;-79
2024/03/19 03:00:37;;;;;;;15.65;10.45;;;;;;;8.19;89.16;101139.31;4994387;28;20409;-79
2024/03/19 03:03:05;;;;;;;18.90;11.18;;;;;;;8.13;89.56;101143.25;4996543;28;20052;-79
2024/03/19 03:05:31;;;;;;;19.23;10.30;;;;;;;8.10;90.09;101149.56;4999588;28;20047;-78
2024/03/19 03:07:58;;;;;;;18.00;10.90;;;;;;;8.14;90.21;101149.34;4998820;28;20129;-79
2024/03/19 03:10:24;;;;;;;17.63;11.10;;;;;;;8.07;90.23;101143.63;5001011;28;20510;-79
2024/03/19 03:12:54;;;;;;;15.00;10.05;;;;;;;8.08;90.23;101143.56;4999404;28;20086;-79
2024/03/19 03:15:23;;;;;;;21.60;10.70;;;;;;;8.10;90.39;101152.19;4999803;28;20125;-78
2024/03/19 03:17:49;;;;;;;18.10;10.75;;;;;;;8.08;90.34;101154.09;5000305;28;20086;-80
2024/03/19 03:20:15;;;;;;;18.08;10.57;;;;;;;8.06;90.60;101153.34;5000567;28;20061;-81
2024/03/19 03:22:42;;;;;;;18.23;11.30;;;;;;;8.15;90.21;101161.56;5000804;28;20046;-81
2024/03/19 03:25:11;;;;;;;18.77;10.45;;;;;;;8.20;89.98;101162.94;5001425;28;20053;-81
2024/03/19 03:27:39;;;;;;;18.10;10.07;;;;;;;8.12;90.06;101154.72;5008720;28;20069;-81
2024/03/19 03:30:08;;;;;;;15.48;10.55;;;;;;;8.18;90.15;101154.31;5008929;28;20141;-81
2024/03/19 03:32:37;;;;;;;16.45;10.80;;;;;;;8.24;89.77;101164.41;5009463;28;20117;-80
2024/03/19 03:35:06;;;;;;;18.38;10.43;;;;;;;8.23;89.67;101173.28;5005281;28;20086;-80
2024/03/19 03:37:33;;;;;;;17.17;10.65;;;;;;;8.15;90.25;101172.13;4992065;28;20136;-78
2024/03/19 03:40:00;;;;;;;14.68;9.90;;;;;;;8.22;90.33;101176.03;4997907;28;20118;-80
2024/03/19 03:42:27;;;;;;;15.48;10.75;;;;;;;8.13;90.04;101176.66;4992540;28;20497;-80
2024/03/19 03:44:54;;;;;;;17.23;11.65;;;;;;;8.02;90.04;101149.22;4998087;28;20046;-79
2024/03/19 03:47:21;;;;;;;18.77;11.43;;;;;;;8.05;90.08;101149.03;4997854;28;20565;-80
2024/03/19 03:49:59;;;;;;;17.95;10.95;;;;;;;8.16;89.96;101173.81;4998228;28;20093;-80
2024/03/19 03:52:29;;;;;;;15.88;10.95;;;;;;;8.08;90.47;101161.13;4992091;28;20046;-80
2024/03/19 03:54:56;;;;;;;17.15;10.70;;;;;;;8.18;90.29;101171.91;4997277;28;20128;-79
2024/03/19 03:57:23;;;;;;;18.63;11.15;;;;;;;8.15;90.69;101169.47;4997845;28;20095;-80
2024/03/19 03:59:49;;;;;;;20.42;12.07;;;;;;;8.15;90.44;101169.47;4997033;28;20051;-79
2024/03/19 04:02:16;;;;;;;16.80;10.85;;;;;;;8.22;90.20;101171.59;4989505;28;20495;-79
2024/03/19 04:04:43;;;;;;;13.50;10.43;;;;;;;8.19;90.52;101163.91;4997002;28;20561;-80
2024/03/19 04:07:11;;;;;;;19.00;11.18;;;;;;;8.06;91.95;101177.06;4997709;28;20124;-80
2024/03/19 04:09:38;;;;;;;19.95;11.88;;;;;;;8.07;91.62;101172.63;4996172;28;20089;-80
2024/03/19 04:12:05;;;;;;;17.98;11.40;;;;;;;8.08;91.11;101180.47;4996098;28;20128;-79
2024/03/19 04:14:34;;;;;;;18.40;12.10;;;;;;;8.05;91.32;101182.47;4996955;28;20074;-79
2024/03/19 04:17:00;;;;;;;19.40;11.60;;;;;;;8.07;91.94;101183.19;4996094;28;20054;-79
2024/03/19 04:19:27;;;;;;;20.30;11.65;;;;;;;7.94;92.49;101185.78;4996081;28;20054;-80
2024/03/19 04:21:54;;;;;;;21.00;12.63;;;;;;;7.86;92.32;101180.22;4997071;28;20125;-78
2024/03/19 04:24:22;;;;;;;17.05;12.05;;;;;;;7.86;92.15;101198.66;4995605;28;20115;-79
2024/03/19 04:26:48;;;;;;;19.33;12.10;;;;;;;7.87;92.71;101196.88;4996370;28;20070;-79
2024/03/19 04:29:17;;;;;;;21.77;11.40;;;;;;;7.81;92.27;101195.47;4995639;28;20077;-78
2024/03/19 04:31:43;;;;;;;21.00;12.30;;;;;;;7.80;92.63;101201.69;4996515;28;20047;-78
2024/03/19 04:34:11;;;;;;;21.17;12.02;;;;;;;7.84;91.98;101209.28;4994063;28;20175;-78
2024/03/19 04:36:37;;;;;;;18.55;11.88;;;;;;;7.84;92.34;101201.38;4994989;28;20058;-78
2024/03/19 04:39:10;;;;;;;21.10;11.25;;;;;;;7.81;92.03;101209.53;4995982;28;20463;-78
2024/03/19 04:41:38;;;;;;;21.30;11.98;;;;;;;7.77;92.31;101213.31;4998790;28;20073;-78
2024/03/19 04:44:05;;;;;;;19.60;11.52;;;;;;;7.74;92.35;101210.03;4996673;28;20058;-78
2024/03/19 04:46:32;;;;;;;17.63;11.43;;;;;;;7.70;92.30;101212.00;4995423;28;20141;-79
2024/03/19 04:48:59;;;;;;;29.27;12.93;;;;;;;7.58;92.72;101210.16;4995576;28;20046;-79
2024/03/19 04:51:26;;;;;;;19.88;11.40;;;;;;;7.50;93.05;101213.31;4992002;28;20150;-78
2024/03/19 04:53:53;;;;;;;20.30;11.50;;;;;;;7.46;92.97;101203.94;4992558;28;20079;-78
2024/03/19 04:56:20;;;;;;;19.27;11.90;;;;;;;7.44;92.93;101221.59;4995891;28;20089;-78
2024/03/19 04:58:48;;;;;;;18.98;11.05;;;;;;;7.41;93.21;101218.31;4994709;28;20070;-79
2024/03/19 05:01:17;;;;;;;19.85;13.05;;;;;;;7.43;93.33;101217.28;4995522;28;20530;-78
2024/03/19 05:03:44;;;;;;;21.38;11.65;;;;;;;7.42;93.05;101226.13;4996149;28;20050;-78
2024/03/19 05:06:12;;;;;;;18.10;11.57;;;;;;;7.42;93.19;101227.94;4995481;28;20055;-79
2024/03/19 05:08:40;;;;;;;20.00;11.93;;;;;;;7.51;93.06;101228.19;4995996;28;20081;-78
2024/03/19 05:11:07;;;;;;;21.27;11.60;;;;;;;7.55;92.98;101224.41;4994047;28;20074;-79
2024/03/19 05:13:34;;;;;;;18.67;11.88;;;;;;;7.55;92.25;101228.84;4997742;28;20062;-78
2024/03/19 05:16:02;;;;;;;16.30;10.82;;;;;;;7.56;92.44;101228.72;4997747;28;20050;-79
2024/03/19 05:18:29;;;;;;;21.17;11.60;;;;;;;7.53;92.41;101226.28;4999510;28;20054;-78
2024/03/19 05:20:56;;;;;;;18.55;11.15;;;;;;;7.47;92.40;101226.69;4999037;28;20042;-79
2024/03/19 05:23:24;;;;;;;17.45;11.45;;;;;;;7.50;92.57;101237.03;4987597;28;20057;-77
2024/03/19 05:25:53;;;;;;;17.35;10.90;;;;;;;7.38;92.60;101218.53;4989306;28;20060;-77
2024/03/19 05:28:20;;;;;;;19.35;11.35;;;;;;;7.38;92.68;101227.28;5000211;28;20050;-77
2024/03/19 05:30:47;;;;;;;16.85;10.88;;;;;;;7.43;93.06;101233.09;4996968;28;20533;-77
2024/03/19 05:33:15;;;;;;;20.05;10.65;;;;;;;7.44;92.98;101231.28;4996123;28;20054;-77
2024/03/19 05:35:44;;;;;;;15.80;10.63;;;;;;;7.42;92.99;101217.41;4988985;28;20117;-78
2024/03/19 05:38:11;;;;;;;16.77;10.90;;;;;;;7.49;92.27;101234.47;4995297;28;20105;-77
2024/03/19 05:40:38;;;;;;;17.67;10.23;;;;;;;7.47;92.84;101241.66;4996353;28;20051;-78
2024/03/19 05:43:06;;;;;;;18.50;12.45;;;;;;;7.45;93.72;101238.25;4996489;28;20372;-78
2024/03/19 05:45:33;;;;;;;18.17;10.90;;;;;;;7.44;93.45;101241.84;4996947;28;20070;-77
2024/03/19 05:48:02;;;;;;;17.23;11.35;;;;;;;7.44;93.20;101233.94;4996278;28;20054;-76
2024/03/19 05:50:30;;;;;;;18.08;10.75;;;;;;;7.52;92.91;101240.41;4995807;28;20101;-76
2024/03/19 05:52:57;;;;;;;17.27;10.90;;;;;;;7.49;93.17;101245.84;4995368;28;20141;-77
2024/03/19 05:55:24;;;;;;;16.45;11.02;;;;;;;7.47;93.35;101247.75;4995661;28;20060;-77
2024/03/19 05:57:50;;;;;;;17.05;11.55;;;;;;;7.43;92.94;101245.41;4996655;28;20057;-77
2024/03/19 06:00:21;;;;;;;17.73;11.43;;;;;;;7.40;93.39;101243.81;4996898;28;20050;-78
2024/03/19 06:02:48;;;;;;;18.88;11.32;;;;;;;7.44;93.42;101250.56;4986556;28;20056;-78
2024/03/19 06:05:15;;;;;;;18.75;11.05;;;;;;;7.47;93.14;101255.66;4998325;28;20129;-78
2024/03/19 06:07:43;;;;;;;19.98;10.50;;;;;;;7.50;93.30;101249.31;5005017;28;20467;-78
2024/03/19 06:10:11;;;;;;;24.35;11.63;;;;;;;7.53;92.77;101257.03;5000314;28;20063;-78
2024/03/19 06:12:38;;;;;;;17.35;10.55;;;;;;;7.57;93.12;101256.75;5003661;28;20130;-78
2024/03/19 06:15:07;;;;;;;17.35;11.20;;;;;;;7.65;92.99;101268.59;5008831;28;20051;-77
2024/03/19 06:17:34;;;;;;;14.82;10.73;;;;;;;7.79;92.41;101263.25;5004395;28;20054;-76
2024/03/19 06:20:00;;;;;;;19.95;11.48;;;;;;;7.95;91.62;101271.00;5010654;28;20111;-77
2024/03/19 06:22:27;;;;;;;19.98;11.55;;;;;;;7.99;90.61;101262.78;5008570;28;20117;-77
2024/03/19 06:24:55;;;;;;;17.50;10.52;;;;;;;8.14;90.52;101273.25;5007744;28;20057;-77
2024/03/19 06:27:21;;;;;;;21.85;12.30;;;;;;;8.18;90.14;101274.75;5000622;28;20118;-78
2024/03/19 06:29:48;;;;;;;20.20;11.68;;;;;;;8.34;90.35;101275.38;5001030;28;20129;-76
2024/03/19 06:32:16;;;;;;;20.88;11.93;;;;;;;8.97;88.45;101263.16;4994540;28;20153;-78
2024/03/19 06:34:43;;;;;;;17.95;10.98;;;;;;;9.68;83.95;101270.31;4994035;28;20073;-78
2024/03/19 06:37:11;;;;;;;19.40;11.70;;;;;;;10.00;82.01;101269.75;4994519;28;20096;-79
2024/03/19 06:39:38;;;;;;;17.63;10.30;;;;;;;10.27;81.50;101269.53;4996917;28;20450;-77
2024/03/19 06:42:06;;;;;;;19.75;10.98;;;;;;;10.20;80.71;101265.63;4996205;28;20137;-77
2024/03/19 06:44:33;;;;;;;18.92;11.38;;;;;;;9.53;83.41;101274.94;4997454;28;20483;-79
2024/03/19 06:47:01;;;;;;;18.98;11.63;;;;;;;9.27;84.99;101265.41;5001291;28;20069;-78
2024/03/19 06:49:28;;;;;;;17.58;11.27;;;;;;;9.17;85.56;101282.88;4999478;28;20101;-78
2024/03/19 06:51:55;;;;;;;22.02;12.32;;;;;;;9.02;85.82;101277.75;4995528;28;20089;-79
2024/03/19 06:54:22;;;;;;;22.70;11.95;;;;;;;8.89;86.51;101290.09;4996614;28;20050;-78
2024/03/19 06:57:07;;;;;;;20.33;13.05;;;;;;;8.96;86.23;101291.34;5037536;23;20545;-80
2024/03/19 06:59:43;;;;;;;20.75;12.30;;;;;;;8.92;86.29;101297.78;5033431;28;20046;-80
2024/03/19 07:02:13;;;;;;;20.08;12.10;;;;;;;8.99;85.95;101299.06;5039382;28;20045;-81
2024/03/19 07:04:40;;;;;;;22.20;12.48;;;;;;;9.08;85.91;101301.06;5041348;28;20096;-82
2024/03/19 07:07:09;;;;;;;17.55;12.10;;;;;;;9.08;86.08;101300.22;5043953;28;20080;-80
2024/03/19 07:09:36;;;;;;;20.95;12.52;;;;;;;9.18;86.01;101292.47;5040428;28;20053;-81
2024/03/19 07:12:03;;;;;;;24.45;13.15;;;;;;;9.10;86.12;101301.78;5034099;28;20201;-81
2024/03/19 07:14:29;;;;;;;18.45;11.90;;;;;;;9.20;86.26;101298.50;5041722;28;20446;-83
2024/03/19 07:16:57;;;;;;;24.65;13.07;;;;;;;9.14;86.12;101306.84;5040172;28;20080;-83
2024/03/19 07:19:24;;;;;;;21.40;13.07;;;;;;;9.08;86.25;101301.06;5042418;28;20060;-83
2024/03/19 07:21:52;;;;;;;20.05;12.35;;;;;;;9.10;86.51;101306.22;5049178;28;20065;-83
2024/03/19 07:24:19;;;;;;;20.02;12.02;;;;;;;9.07;86.66;101309.09;5041399;28;20060;-83
2024/03/19 07:26:45;;;;;;;21.05;12.35;;;;;;;9.05;86.28;101314.47;5053927;28;20029;-83
2024/03/19 07:29:12;;;;;;;16.90;12.07;;;;;;;9.09;87.06;101315.94;5043452;28;20061;-83
2024/03/19 07:31:42;;;;;;;20.85;12.63;;;;;;;9.26;86.57;101311.28;5044956;28;20048;-83
2024/03/19 07:34:11;;;;;;;19.42;12.65;;;;;;;9.18;85.81;101321.53;5041266;28;20099;-83
2024/03/19 07:36:39;;;;;;;20.73;12.77;;;;;;;9.29;85.60;101321.63;5033273;28;20060;-83
2024/03/19 07:39:11;;;;;;;23.98;12.82;;;;;;;9.24;85.72;101324.59;5027992;28;20054;-79
2024/03/19 07:41:38;;;;;;;24.23;13.15;;;;;;;9.34;85.41;101317.69;5035320;28;20065;-80
2024/03/19 07:44:04;;;;;;;18.88;12.88;;;;;;;9.58;85.70;101323.00;5037574;28;20076;-83
2024/03/19 07:46:31;;;;;;;19.63;12.85;;;;;;;9.82;83.87;101319.53;5028158;28;20498;-82
2024/03/19 07:48:59;;;;;;;19.35;12.45;;;;;;;9.59;84.47;101314.13;5035362;28;20112;-81
2024/03/19 07:51:28;;;;;;;19.63;12.30;;;;;;;9.67;84.32;101318.03;5032655;28;20084;-83
2024/03/19 07:53:55;;;;;;;19.25;12.20;;;;;;;9.84;84.13;101325.56;5030840;28;20059;-83
2024/03/19 07:56:21;;;;;;;30.65;24.00;;;;;;;9.97;84.27;101330.81;5038637;28;20077;-83
2024/03/19 07:58:48;;;;;;;23.45;15.75;;;;;;;9.93;83.86;101329.34;5039702;28;20061;-82
2024/03/19 08:01:15;;;;;;;19.60;12.05;;;;;;;9.99;83.52;101321.78;5039917;28;20053;-81
2024/03/19 08:03:42;;;;;;;21.33;12.68;;;;;;;10.03;83.27;101328.53;5040359;28;20076;-82
2024/03/19 08:06:09;;;;;;;17.58;11.88;;;;;;;10.19;82.49;101328.25;5038133;28;20076;-79
2024/03/19 08:08:37;;;;;;;19.33;12.23;;;;;;;9.87;83.50;101323.56;5040762;28;20140;-82
2024/03/19 08:11:05;;;;;;;21.58;12.57;;;;;;;9.67;84.64;101326.78;5041037;28;20053;-82
2024/03/19 08:13:32;;;;;;;18.15;12.35;;;;;;;9.79;83.97;101319.78;5041655;28;20152;-81
2024/03/19 08:15:59;;;;;;;21.88;13.23;;;;;;;9.72;84.77;101323.81;5042270;28;20042;-81
2024/03/19 08:18:25;;;;;;;17.65;12.45;;;;;;;9.69;84.90;101329.31;5038865;28;20049;-81
2024/03/19 08:20:52;;;;;;;22.42;11.80;;;;;;;9.94;84.53;101334.50;5038602;28;20436;-79
2024/03/19 08:23:19;;;;;;;20.33;11.75;;;;;;;10.08;84.71;101334.31;5037636;28;20081;-82
2024/03/19 08:25:47;;;;;;;21.65;12.20;;;;;;;10.09;82.81;101337.84;5037895;28;20191;-81
2024/03/19 08:28:15;;;;;;;19.38;12.52;;;;;;;10.04;83.44;101338.16;5037775;28;20398;-82
2024/03/19 08:30:45;;;;;;;20.35;12.20;;;;;;;10.02;83.08;101329.50;5037004;28;20057;-80
2024/03/19 08:33:14;;;;;;;18.45;11.90;;;;;;;10.17;82.99;101334.59;5036569;28;20164;-82
2024/03/19 08:35:41;;;;;;;21.25;12.88;;;;;;;10.09;82.36;101336.03;5036018;28;20081;-80
2024/03/19 08:38:07;;;;;;;20.42;12.10;;;;;;;10.05;82.82;101345.16;5035044;28;20057;-82
2024/03/19 08:40:34;;;;;;;19.17;13.00;;;;;;;9.99;82.88;101342.94;5028977;28;20139;-82
2024/03/19 08:43:02;;;;;;;21.17;12.88;;;;;;;10.03;83.25;101343.56;5037178;28;20053;-81
2024/03/19 08:45:30;;;;;;;19.05;12.40;;;;;;;10.04;82.40;101340.78;5033914;28;20045;-82
2024/03/19 08:47:57;;;;;;;21.17;12.23;;;;;;;10.03;82.78;101338.28;5042923;28;20053;-81
2024/03/19 08:50:24;;;;;;;21.58;13.23;;;;;;;10.00;83.12;101339.38;5034977;28;20071;-82
2024/03/19 08:52:53;;;;;;;22.55;13.60;;;;;;;10.12;83.09;101338.44;5033497;28;20096;-82
2024/03/19 08:55:20;;;;;;;20.50;12.52;;;;;;;10.16;83.17;101343.50;5035103;28;20154;-80
2024/03/19 08:57:46;;;;;;;23.33;13.48;;;;;;;10.11;82.61;101342.03;5043201;28;20497;-81
2024/03/19 09:00:16;;;;;;;19.92;12.80;;;;;;;10.29;82.51;101325.78;5043123;28;20093;-82
2024/03/19 09:02:46;;;;;;;24.05;13.75;;;;;;;10.37;81.60;101331.34;5038202;28;20132;-82
2024/03/19 09:05:16;;;;;;;22.88;13.98;;;;;;;10.56;80.65;101331.66;5042717;28;20049;-82
2024/03/19 09:07:48;;;;;;;21.02;13.32;;;;;;;10.60;80.52;101322.50;5041405;28;20072;-84
2024/03/19 09:10:21;;;;;;;23.30;13.98;;;;;;;10.72;80.53;101322.53;5042134;28;20405;-83
2024/03/19 09:12:55;;;;;;;26.05;15.35;;;;;;;10.94;79.57;101325.22;5039321;28;20141;-81
2024/03/19 09:15:24;;;;;;;22.50;14.15;;;;;;;11.06;79.32;101324.25;5042460;28;20111;-82
2024/03/19 09:17:51;;;;;;;22.95;15.23;;;;;;;11.28;77.86;101328.69;5034239;28;20114;-83
2024/03/19 09:20:18;;;;;;;21.75;13.80;;;;;;;11.80;77.11;101323.66;5035010;28;20532;-82
2024/03/19 09:22:45;;;;;;;23.65;14.15;;;;;;;12.20;74.76;101317.78;5042078;28;20058;-83
2024/03/19 09:25:13;;;;;;;21.45;13.82;;;;;;;12.33;73.55;101318.44;5043682;28;20083;-82
2024/03/19 09:27:40;;;;;;;26.55;14.13;;;;;;;12.55;72.69;101330.75;5047463;28;20117;-83
2024/03/19 09:30:08;;;;;;;22.23;14.30;;;;;;;12.06;74.54;101322.41;5050503;28;20072;-83
2024/03/19 09:32:37;;;;;;;24.77;13.77;;;;;;;11.87;74.94;101327.53;5044799;28;20059;-83
2024/03/19 09:35:04;;;;;;;28.73;13.98;;;;;;;12.04;74.79;101318.19;5049492;28;20108;-83
2024/03/19 09:37:31;;;;;;;18.75;13.25;;;;;;;12.44;72.97;101323.66;5042655;28;20046;-84
2024/03/19 09:39:58;;;;;;;19.38;14.30;;;;;;;12.35;73.07;101313.81;5034056;28;20072;-82
2024/03/19 09:42:26;;;;;;;22.73;14.07;;;;;;;12.42;73.27;101314.16;5032762;28;20061;-82
2024/03/19 09:44:53;;;;;;;20.08;12.98;;;;;;;13.14;71.86;101324.75;5040735;28;20087;-82
2024/03/19 09:47:22;;;;;;;17.42;12.40;;;;;;;13.52;68.86;101310.75;5028477;28;20056;-83
2024/03/19 09:49:50;;;;;;;23.48;12.98;;;;;;;13.42;68.53;101306.41;5036715;28;20065;-83
2024/03/19 09:52:17;;;;;;;21.08;12.20;;;;;;;12.90;70.84;101315.28;5035740;28;20048;-83
2024/03/19 09:54:44;;;;;;;18.00;13.32;;;;;;;13.12;70.26;101310.75;5029238;28;20124;-82
2024/03/19 09:57:14;;;;;;;21.98;13.63;;;;;;;13.39;69.26;101308.38;5029306;28;20049;-80
2024/03/19 09:59:45;;;;;;;19.42;12.63;;;;;;;13.08;69.64;101310.19;5040022;28;20439;-83
2024/03/19 10:02:17;;;;;;;23.70;13.27;;;;;;;13.52;69.01;101305.44;5034138;28;20054;-83
2024/03/19 10:04:47;;;;;;;18.50;11.63;;;;;;;14.08;68.21;101303.97;5032033;28;20067;-83
2024/03/19 10:07:16;;;;;;;17.85;11.57;;;;;;;14.32;66.04;101304.38;5040071;28;20130;-82
2024/03/19 10:09:45;;;;;;;21.67;11.98;;;;;;;14.15;65.86;101303.28;5034449;28;20049;-81
2024/03/19 10:12:12;;;;;;;21.58;12.07;;;;;;;13.75;67.22;101306.06;5039391;28;20056;-83
2024/03/19 10:14:40;;;;;;;18.48;11.13;;;;;;;14.14;67.81;101306.06;5040893;28;20049;-84
2024/03/19 10:17:09;;;;;;;17.75;11.23;;;;;;;14.50;64.98;101309.84;5040687;28;20042;-83
2024/03/19 10:19:36;;;;;;;17.10;10.93;;;;;;;14.45;64.86;101306.75;5039456;28;20050;-83
2024/03/19 10:22:03;;;;;;;18.55;10.95;;;;;;;14.34;66.11;101314.91;5041944;28;20084;-83
2024/03/19 10:24:32;;;;;;;17.95;12.50;;;;;;;13.94;66.75;101318.56;5041372;28;20073;-82
2024/03/19 10:26:58;;;;;;;19.35;11.45;;;;;;;14.42;65.62;101309.72;5041570;28;20045;-82
2024/03/19 10:29:25;;;;;;;19.90;11.20;;;;;;;14.84;64.73;101312.03;5041680;28;20049;-79
2024/03/19 10:31:53;;;;;;;18.65;10.05;;;;;;;15.00;62.43;101317.59;5042261;28;20474;-82
2024/03/19 10:34:23;;;;;;;15.95;9.52;;;;;;;15.06;63.37;101303.66;5041869;28;20115;-80
2024/03/19 10:36:51;;;;;;;13.90;9.70;;;;;;;15.38;62.31;101300.56;5042242;28;20179;-83
2024/03/19 10:39:19;;;;;;;14.88;9.80;;;;;;;15.43;61.51;101298.28;5033879;28;20060;-82
2024/03/19 10:41:51;;;;;;;15.10;9.65;;;;;;;15.16;59.70;101303.63;5041840;28;20519;-82
2024/03/19 10:44:19;;;;;;;19.10;9.90;;;;;;;15.11;60.56;101300.56;5033422;28;20046;-82
2024/03/19 10:46:47;;;;;;;14.68;9.48;;;;;;;15.39;60.51;101317.41;5034320;28;20046;-83
2024/03/19 10:49:16;;;;;;;12.70;8.30;;;;;;;15.47;60.94;101304.16;5033220;28;20053;-81
2024/03/19 10:51:45;;;;;;;12.75;8.00;;;;;;;15.65;58.96;101298.88;5041384;28;20081;-83
2024/03/19 10:54:15;;;;;;;14.18;7.88;;;;;;;15.56;59.04;101295.25;5041597;28;20132;-83
2024/03/19 10:56:42;;;;;;;11.20;6.43;;;;;;;15.38;58.33;101291.72;5041723;28;20089;-82
2024/03/19 10:59:13;;;;;;;11.70;7.63;;;;;;;15.64;57.23;101282.03;5039303;28;20053;-81
2024/03/19 11:01:45;;;;;;;11.70;7.38;;;;;;;15.89;56.83;101284.94;5036675;28;20050;-81
2024/03/19 11:04:14;;;;;;;13.65;7.22;;;;;;;15.88;56.39;101281.44;5044028;28;20132;-83
2024/03/19 11:06:40;;;;;;;14.88;7.10;;;;;;;15.61;57.21;101286.78;5042887;28;20049;-83
2024/03/19 11:09:19;;;;;;;12.90;7.05;;;;;;;15.35;57.91;101281.34;5032964;28;20065;-82
2024/03/19 11:11:50;;;;;;;9.77;6.07;;;;;;;15.77;56.55;101271.00;5040675;28;20429;-80
2024/03/19 11:14:22;;;;;;;12.93;5.65;;;;;;;15.85;54.33;101280.88;5040533;28;20061;-82
2024/03/19 11:16:49;;;;;;;7.88;4.88;;;;;;;15.75;55.11;101275.63;5042254;28;20160;-82
2024/03/19 11:19:20;;;;;;;8.57;4.82;;;;;;;15.71;54.45;101281.41;5047101;28;20057;-83
2024/03/19 11:21:49;;;;;;;8.05;5.10;;;;;;;15.45;53.59;101286.59;5049127;28;20064;-81